sensor_id;sensor_type;location;lat;lon;timestamp;P1;durP1;ratioP1;P2;durP2;ratioP2
35442;SDS011;21561;55.654;37.592;2023-09-19T00:00:48;25.85;;;9.98;;
35442;SDS011;21561;55.654;37.592;2023-09-19T00:03:16;18.38;;;9.13;;
35442;SDS011;21561;55.654;37.592;2023-09-19T00:05:43;26.38;;;9.75;;
35442;SDS011;21561;55.654;37.592;2023-09-19T00:08:12;25.35;;;9.23;;
35442;SDS011;21561;55.654;37.592;2023-09-19T00:10:42;23.95;;;9.60;;
35442;SDS011;21561;55.654;37.592;2023-09-19T00:13:10;20.83;;;9.77;;
35442;SDS011;21561;55.654;37.592;2023-09-19T00:15:45;24.30;;;9.32;;
35442;SDS011;21561;55.654;37.592;2023-09-19T00:18:18;22.30;;;9.30;;
35442;SDS011;21561;55.654;37.592;2023-09-19T00:20:47;23.50;;;10.00;;
35442;SDS011;21561;55.654;37.592;2023-09-19T00:23:16;22.10;;;10.32;;
35442;SDS011;21561;55.654;37.592;2023-09-19T00:25:43;21.95;;;10.55;;
35442;SDS011;21561;55.654;37.592;2023-09-19T00:28:10;28.73;;;10.68;;
35442;SDS011;21561;55.654;37.592;2023-09-19T00:30:37;24.65;;;11.23;;
35442;SDS011;21561;55.654;37.592;2023-09-19T00:33:05;29.77;;;12.70;;
35442;SDS011;21561;55.654;37.592;2023-09-19T00:35:34;30.27;;;14.93;;
35442;SDS011;21561;55.654;37.592;2023-09-19T00:38:01;32.47;;;15.02;;
35442;SDS011;21561;55.654;37.592;2023-09-19T00:40:28;31.33;;;15.65;;
35442;SDS011;21561;55.654;37.592;2023-09-19T00:42:59;32.33;;;16.80;;
35442;SDS011;21561;55.654;37.592;2023-09-19T00:45:26;32.78;;;18.98;;
35442;SDS011;21561;55.654;37.592;2023-09-19T00:47:55;36.10;;;20.45;;
35442;SDS011;21561;55.654;37.592;2023-09-19T00:50:24;41.53;;;20.33;;
35442;SDS011;21561;55.654;37.592;2023-09-19T00:52:55;37.47;;;20.13;;
35442;SDS011;21561;55.654;37.592;2023-09-19T00:55:23;41.25;;;21.50;;
35442;SDS011;21561;55.654;37.592;2023-09-19T00:57:51;41.17;;;20.05;;
35442;SDS011;21561;55.654;37.592;2023-09-19T01:00:19;39.67;;;22.77;;
35442;SDS011;21561;55.654;37.592;2023-09-19T01:02:47;43.05;;;22.80;;
35442;SDS011;21561;55.654;37.592;2023-09-19T01:05:15;41.50;;;23.10;;
35442;SDS011;21561;55.654;37.592;2023-09-19T01:07:43;43.70;;;23.08;;
35442;SDS011;21561;55.654;37.592;2023-09-19T01:10:16;43.65;;;23.55;;
35442;SDS011;21561;55.654;37.592;2023-09-19T01:25:07;45.25;;;26.00;;
35442;SDS011;21561;55.654;37.592;2023-09-19T01:30:20;44.92;;;26.77;;
35442;SDS011;21561;55.654;37.592;2023-09-19T01:32:51;49.78;;;28.63;;
35442;SDS011;21561;55.654;37.592;2023-09-19T01:35:21;46.95;;;27.85;;
35442;SDS011;21561;55.654;37.592;2023-09-19T01:37:48;44.45;;;26.50;;
35442;SDS011;21561;55.654;37.592;2023-09-19T01:40:16;45.63;;;28.70;;
35442;SDS011;21561;55.654;37.592;2023-09-19T01:42:53;46.28;;;28.50;;
35442;SDS011;21561;55.654;37.592;2023-09-19T01:51:05;45.85;;;28.67;;
35442;SDS011;21561;55.654;37.592;2023-09-19T01:53:34;46.95;;;29.23;;
35442;SDS011;21561;55.654;37.592;2023-09-19T01:56:02;51.20;;;30.98;;
35442;SDS011;21561;55.654;37.592;2023-09-19T01:58:37;51.08;;;31.30;;
35442;SDS011;21561;55.654;37.592;2023-09-19T02:01:10;52.83;;;30.73;;
35442;SDS011;21561;55.654;37.592;2023-09-19T02:03:41;53.75;;;29.45;;
35442;SDS011;21561;55.654;37.592;2023-09-19T02:06:14;56.55;;;31.05;;
35442;SDS011;21561;55.654;37.592;2023-09-19T02:08:42;56.00;;;31.43;;
35442;SDS011;21561;55.654;37.592;2023-09-19T02:11:09;54.45;;;30.05;;
35442;SDS011;21561;55.654;37.592;2023-09-19T02:13:36;53.85;;;30.75;;
35442;SDS011;21561;55.654;37.592;2023-09-19T02:16:04;55.10;;;31.52;;
35442;SDS011;21561;55.654;37.592;2023-09-19T02:18:33;54.22;;;30.20;;
35442;SDS011;21561;55.654;37.592;2023-09-19T02:21:03;62.63;;;31.88;;
35442;SDS011;21561;55.654;37.592;2023-09-19T02:23:38;55.20;;;31.10;;
35442;SDS011;21561;55.654;37.592;2023-09-19T02:26:06;57.85;;;32.65;;
35442;SDS011;21561;55.654;37.592;2023-09-19T02:28:33;53.53;;;30.77;;
35442;SDS011;21561;55.654;37.592;2023-09-19T02:31:02;60.20;;;32.90;;
35442;SDS011;21561;55.654;37.592;2023-09-19T02:33:31;60.35;;;32.30;;
35442;SDS011;21561;55.654;37.592;2023-09-19T02:35:59;50.25;;;29.98;;
35442;SDS011;21561;55.654;37.592;2023-09-19T02:38:27;56.83;;;30.88;;
35442;SDS011;21561;55.654;37.592;2023-09-19T02:40:55;59.28;;;30.88;;
35442;SDS011;21561;55.654;37.592;2023-09-19T02:43:23;54.85;;;32.45;;
35442;SDS011;21561;55.654;37.592;2023-09-19T02:45:50;52.55;;;29.80;;
35442;SDS011;21561;55.654;37.592;2023-09-19T02:48:19;55.45;;;30.27;;
35442;SDS011;21561;55.654;37.592;2023-09-19T02:50:50;56.90;;;30.90;;
35442;SDS011;21561;55.654;37.592;2023-09-19T02:53:17;56.03;;;31.85;;
35442;SDS011;21561;55.654;37.592;2023-09-19T02:55:46;55.00;;;30.80;;
35442;SDS011;21561;55.654;37.592;2023-09-19T02:58:13;53.97;;;29.85;;
35442;SDS011;21561;55.654;37.592;2023-09-19T03:00:41;56.53;;;30.23;;
35442;SDS011;21561;55.654;37.592;2023-09-19T03:03:09;57.35;;;30.38;;
35442;SDS011;21561;55.654;37.592;2023-09-19T03:05:36;53.10;;;28.60;;
35442;SDS011;21561;55.654;37.592;2023-09-19T03:08:05;57.83;;;30.73;;
35442;SDS011;21561;55.654;37.592;2023-09-19T03:10:32;54.80;;;29.25;;
35442;SDS011;21561;55.654;37.592;2023-09-19T03:12:59;54.35;;;28.27;;
35442;SDS011;21561;55.654;37.592;2023-09-19T03:15:26;56.92;;;30.00;;
35442;SDS011;21561;55.654;37.592;2023-09-19T03:17:53;53.95;;;29.73;;
35442;SDS011;21561;55.654;37.592;2023-09-19T03:20:20;54.60;;;29.85;;
35442;SDS011;21561;55.654;37.592;2023-09-19T03:22:47;58.13;;;29.58;;
35442;SDS011;21561;55.654;37.592;2023-09-19T03:25:15;59.47;;;30.58;;
35442;SDS011;21561;55.654;37.592;2023-09-19T03:27:44;63.25;;;31.17;;
35442;SDS011;21561;55.654;37.592;2023-09-19T03:30:11;61.67;;;30.60;;
35442;SDS011;21561;55.654;37.592;2023-09-19T03:32:43;61.38;;;30.60;;
35442;SDS011;21561;55.654;37.592;2023-09-19T03:35:12;61.22;;;30.30;;
35442;SDS011;21561;55.654;37.592;2023-09-19T03:37:41;65.13;;;31.13;;
35442;SDS011;21561;55.654;37.592;2023-09-19T03:40:09;55.75;;;29.23;;
35442;SDS011;21561;55.654;37.592;2023-09-19T03:42:40;65.05;;;31.15;;
35442;SDS011;21561;55.654;37.592;2023-09-19T03:45:08;57.58;;;31.55;;
35442;SDS011;21561;55.654;37.592;2023-09-19T03:47:42;62.47;;;32.78;;
35442;SDS011;21561;55.654;37.592;2023-09-19T03:50:09;77.00;;;35.30;;
35442;SDS011;21561;55.654;37.592;2023-09-19T03:52:41;68.32;;;34.92;;
35442;SDS011;21561;55.654;37.592;2023-09-19T03:55:08;69.30;;;35.47;;
35442;SDS011;21561;55.654;37.592;2023-09-19T03:57:36;66.88;;;34.72;;
35442;SDS011;21561;55.654;37.592;2023-09-19T04:00:04;63.70;;;32.90;;
35442;SDS011;21561;55.654;37.592;2023-09-19T04:02:32;63.80;;;32.70;;
35442;SDS011;21561;55.654;37.592;2023-09-19T04:04:59;66.57;;;32.58;;
35442;SDS011;21561;55.654;37.592;2023-09-19T04:07:28;56.72;;;31.52;;
35442;SDS011;21561;55.654;37.592;2023-09-19T04:09:55;60.92;;;31.30;;
35442;SDS011;21561;55.654;37.592;2023-09-19T04:12:22;55.80;;;28.77;;
35442;SDS011;21561;55.654;37.592;2023-09-19T04:14:49;49.63;;;26.70;;
35442;SDS011;21561;55.654;37.592;2023-09-19T04:17:16;53.17;;;28.05;;
35442;SDS011;21561;55.654;37.592;2023-09-19T04:19:45;48.28;;;26.35;;
35442;SDS011;21561;55.654;37.592;2023-09-19T04:22:12;48.92;;;27.05;;
35442;SDS011;21561;55.654;37.592;2023-09-19T04:24:39;47.67;;;25.40;;
35442;SDS011;21561;55.654;37.592;2023-09-19T04:27:06;52.00;;;25.60;;
35442;SDS011;21561;55.654;37.592;2023-09-19T04:29:33;40.88;;;23.13;;
35442;SDS011;21561;55.654;37.592;2023-09-19T04:32:01;43.30;;;23.67;;
35442;SDS011;21561;55.654;37.592;2023-09-19T04:34:32;42.13;;;23.27;;
35442;SDS011;21561;55.654;37.592;2023-09-19T04:37:01;42.58;;;22.65;;
35442;SDS011;21561;55.654;37.592;2023-09-19T04:39:28;40.95;;;21.20;;
35442;SDS011;21561;55.654;37.592;2023-09-19T04:41:55;38.83;;;20.95;;
35442;SDS011;21561;55.654;37.592;2023-09-19T04:44:22;38.33;;;21.58;;
35442;SDS011;21561;55.654;37.592;2023-09-19T04:46:49;43.05;;;21.77;;
35442;SDS011;21561;55.654;37.592;2023-09-19T04:49:17;38.85;;;21.50;;
35442;SDS011;21561;55.654;37.592;2023-09-19T04:51:45;40.70;;;21.42;;
35442;SDS011;21561;55.654;37.592;2023-09-19T04:54:13;43.55;;;23.05;;
35442;SDS011;21561;55.654;37.592;2023-09-19T04:56:42;45.42;;;22.95;;
35442;SDS011;21561;55.654;37.592;2023-09-19T04:59:09;38.90;;;21.08;;
35442;SDS011;21561;55.654;37.592;2023-09-19T05:01:37;43.75;;;21.85;;
35442;SDS011;21561;55.654;37.592;2023-09-19T05:04:04;38.40;;;21.25;;
35442;SDS011;21561;55.654;37.592;2023-09-19T05:06:31;43.05;;;21.17;;
35442;SDS011;21561;55.654;37.592;2023-09-19T05:09:00;40.70;;;20.85;;
35442;SDS011;21561;55.654;37.592;2023-09-19T05:11:26;39.15;;;20.88;;
35442;SDS011;21561;55.654;37.592;2023-09-19T05:14:00;45.60;;;25.73;;
35442;SDS011;21561;55.654;37.592;2023-09-19T05:16:30;46.50;;;26.35;;
35442;SDS011;21561;55.654;37.592;2023-09-19T05:19:00;47.20;;;24.67;;
35442;SDS011;21561;55.654;37.592;2023-09-19T05:21:28;42.88;;;21.50;;
35442;SDS011;21561;55.654;37.592;2023-09-19T05:23:57;41.05;;;22.00;;
35442;SDS011;21561;55.654;37.592;2023-09-19T05:26:24;39.03;;;19.83;;
35442;SDS011;21561;55.654;37.592;2023-09-19T05:28:51;36.28;;;18.85;;
35442;SDS011;21561;55.654;37.592;2023-09-19T05:31:19;38.33;;;19.38;;
35442;SDS011;21561;55.654;37.592;2023-09-19T05:33:47;36.33;;;18.58;;
35442;SDS011;21561;55.654;37.592;2023-09-19T05:36:14;34.65;;;17.27;;
35442;SDS011;21561;55.654;37.592;2023-09-19T05:38:43;34.45;;;17.80;;
35442;SDS011;21561;55.654;37.592;2023-09-19T05:41:11;32.50;;;16.77;;
35442;SDS011;21561;55.654;37.592;2023-09-19T05:43:40;32.80;;;16.48;;
35442;SDS011;21561;55.654;37.592;2023-09-19T05:46:08;31.10;;;16.90;;
35442;SDS011;21561;55.654;37.592;2023-09-19T05:48:35;35.80;;;17.05;;
35442;SDS011;21561;55.654;37.592;2023-09-19T05:51:02;32.40;;;17.13;;
35442;SDS011;21561;55.654;37.592;2023-09-19T05:53:29;33.42;;;16.75;;
35442;SDS011;21561;55.654;37.592;2023-09-19T05:55:56;33.45;;;16.30;;
35442;SDS011;21561;55.654;37.592;2023-09-19T05:58:23;30.75;;;17.15;;
35442;SDS011;21561;55.654;37.592;2023-09-19T06:00:50;31.92;;;16.98;;
35442;SDS011;21561;55.654;37.592;2023-09-19T06:03:16;30.75;;;17.02;;
35442;SDS011;21561;55.654;37.592;2023-09-19T06:05:45;33.25;;;16.58;;
35442;SDS011;21561;55.654;37.592;2023-09-19T06:08:16;30.80;;;16.60;;
35442;SDS011;21561;55.654;37.592;2023-09-19T06:10:42;31.65;;;16.42;;
35442;SDS011;21561;55.654;37.592;2023-09-19T06:13:09;30.33;;;15.27;;
35442;SDS011;21561;55.654;37.592;2023-09-19T06:15:37;34.65;;;15.70;;
35442;SDS011;21561;55.654;37.592;2023-09-19T06:18:04;29.52;;;15.77;;
35442;SDS011;21561;55.654;37.592;2023-09-19T06:20:32;27.80;;;15.48;;
35442;SDS011;21561;55.654;37.592;2023-09-19T06:23:00;33.13;;;16.00;;
35442;SDS011;21561;55.654;37.592;2023-09-19T06:25:29;33.00;;;16.70;;
35442;SDS011;21561;55.654;37.592;2023-09-19T06:27:56;34.42;;;15.27;;
35442;SDS011;21561;55.654;37.592;2023-09-19T06:30:23;34.35;;;15.55;;
35442;SDS011;21561;55.654;37.592;2023-09-19T06:32:58;34.58;;;16.67;;
35442;SDS011;21561;55.654;37.592;2023-09-19T06:35:26;33.85;;;15.77;;
35442;SDS011;21561;55.654;37.592;2023-09-19T06:37:56;30.48;;;16.08;;
35442;SDS011;21561;55.654;37.592;2023-09-19T06:40:25;27.77;;;16.10;;
35442;SDS011;21561;55.654;37.592;2023-09-19T06:42:52;34.33;;;17.55;;
35442;SDS011;21561;55.654;37.592;2023-09-19T06:45:20;31.67;;;16.60;;
35442;SDS011;21561;55.654;37.592;2023-09-19T06:47:49;28.77;;;16.25;;
35442;SDS011;21561;55.654;37.592;2023-09-19T06:50:18;29.25;;;15.48;;
35442;SDS011;21561;55.654;37.592;2023-09-19T06:52:52;32.72;;;16.73;;
35442;SDS011;21561;55.654;37.592;2023-09-19T06:55:22;30.17;;;15.77;;
35442;SDS011;21561;55.654;37.592;2023-09-19T06:57:55;30.95;;;16.67;;
35442;SDS011;21561;55.654;37.592;2023-09-19T07:00:22;33.83;;;16.73;;
35442;SDS011;21561;55.654;37.592;2023-09-19T07:03:00;33.90;;;16.75;;
35442;SDS011;21561;55.654;37.592;2023-09-19T07:05:35;27.42;;;17.17;;
35442;SDS011;21561;55.654;37.592;2023-09-19T07:08:11;33.78;;;17.08;;
35442;SDS011;21561;55.654;37.592;2023-09-19T07:10:39;28.33;;;16.60;;
35442;SDS011;21561;55.654;37.592;2023-09-19T07:13:07;30.83;;;16.75;;
35442;SDS011;21561;55.654;37.592;2023-09-19T07:15:38;26.27;;;15.27;;
35442;SDS011;21561;55.654;37.592;2023-09-19T07:18:06;27.50;;;15.30;;
35442;SDS011;21561;55.654;37.592;2023-09-19T07:20:33;27.38;;;16.55;;
35442;SDS011;21561;55.654;37.592;2023-09-19T07:23:01;30.95;;;16.15;;
35442;SDS011;21561;55.654;37.592;2023-09-19T07:25:28;33.70;;;16.23;;
35442;SDS011;21561;55.654;37.592;2023-09-19T07:27:56;30.27;;;16.42;;
35442;SDS011;21561;55.654;37.592;2023-09-19T07:30:27;29.37;;;17.00;;
35442;SDS011;21561;55.654;37.592;2023-09-19T07:32:54;32.13;;;17.40;;
35442;SDS011;21561;55.654;37.592;2023-09-19T07:35:21;33.50;;;17.90;;
35442;SDS011;21561;55.654;37.592;2023-09-19T07:37:49;27.58;;;16.63;;
35442;SDS011;21561;55.654;37.592;2023-09-19T07:40:18;32.03;;;16.85;;
35442;SDS011;21561;55.654;37.592;2023-09-19T07:42:47;32.42;;;16.90;;
35442;SDS011;21561;55.654;37.592;2023-09-19T07:45:14;29.23;;;16.75;;
35442;SDS011;21561;55.654;37.592;2023-09-19T07:47:44;31.55;;;16.35;;
35442;SDS011;21561;55.654;37.592;2023-09-19T07:50:12;35.08;;;16.00;;
35442;SDS011;21561;55.654;37.592;2023-09-19T07:52:40;27.05;;;15.18;;
35442;SDS011;21561;55.654;37.592;2023-09-19T07:55:07;30.05;;;15.30;;
35442;SDS011;21561;55.654;37.592;2023-09-19T07:57:35;29.83;;;16.23;;
35442;SDS011;21561;55.654;37.592;2023-09-19T08:00:02;32.25;;;15.85;;
35442;SDS011;21561;55.654;37.592;2023-09-19T08:02:34;31.80;;;15.90;;
35442;SDS011;21561;55.654;37.592;2023-09-19T08:05:07;29.77;;;16.10;;
35442;SDS011;21561;55.654;37.592;2023-09-19T08:07:38;29.95;;;16.17;;
35442;SDS011;21561;55.654;37.592;2023-09-19T08:10:07;35.38;;;15.63;;
35442;SDS011;21561;55.654;37.592;2023-09-19T08:12:39;26.67;;;14.85;;
35442;SDS011;21561;55.654;37.592;2023-09-19T08:17:44;28.52;;;15.52;;
35442;SDS011;21561;55.654;37.592;2023-09-19T08:20:11;29.55;;;15.98;;
35442;SDS011;21561;55.654;37.592;2023-09-19T08:25:16;31.70;;;16.35;;
35442;SDS011;21561;55.654;37.592;2023-09-19T08:27:45;26.85;;;15.63;;
35442;SDS011;21561;55.654;37.592;2023-09-19T08:30:16;27.08;;;15.43;;
35442;SDS011;21561;55.654;37.592;2023-09-19T08:32:44;25.95;;;15.00;;
35442;SDS011;21561;55.654;37.592;2023-09-19T08:35:12;27.50;;;14.35;;
35442;SDS011;21561;55.654;37.592;2023-09-19T08:37:42;28.77;;;14.93;;
35442;SDS011;21561;55.654;37.592;2023-09-19T08:40:11;25.70;;;14.00;;
35442;SDS011;21561;55.654;37.592;2023-09-19T08:45:16;36.58;;;16.00;;
35442;SDS011;21561;55.654;37.592;2023-09-19T08:47:47;27.10;;;14.15;;
35442;SDS011;21561;55.654;37.592;2023-09-19T08:50:25;30.25;;;14.98;;
35442;SDS011;21561;55.654;37.592;2023-09-19T08:53:00;27.05;;;14.68;;
35442;SDS011;21561;55.654;37.592;2023-09-19T08:55:28;31.55;;;15.15;;
35442;SDS011;21561;55.654;37.592;2023-09-19T08:57:59;30.85;;;15.10;;
35442;SDS011;21561;55.654;37.592;2023-09-19T09:00:28;35.70;;;15.43;;
35442;SDS011;21561;55.654;37.592;2023-09-19T09:02:57;35.60;;;15.90;;
35442;SDS011;21561;55.654;37.592;2023-09-19T09:05:25;23.92;;;15.25;;
35442;SDS011;21561;55.654;37.592;2023-09-19T09:07:54;24.13;;;14.60;;
35442;SDS011;21561;55.654;37.592;2023-09-19T09:10:22;30.05;;;16.25;;
35442;SDS011;21561;55.654;37.592;2023-09-19T09:12:51;30.17;;;15.93;;
35442;SDS011;21561;55.654;37.592;2023-09-19T09:15:20;31.67;;;16.77;;
35442;SDS011;21561;55.654;37.592;2023-09-19T09:17:51;28.48;;;16.00;;
35442;SDS011;21561;55.654;37.592;2023-09-19T09:20:22;30.77;;;15.27;;
35442;SDS011;21561;55.654;37.592;2023-09-19T09:22:52;32.50;;;16.05;;
35442;SDS011;21561;55.654;37.592;2023-09-19T09:25:21;33.53;;;15.85;;
35442;SDS011;21561;55.654;37.592;2023-09-19T09:28:00;28.42;;;15.70;;
35442;SDS011;21561;55.654;37.592;2023-09-19T09:30:35;31.75;;;16.70;;
35442;SDS011;21561;55.654;37.592;2023-09-19T09:33:13;26.63;;;15.23;;
35442;SDS011;21561;55.654;37.592;2023-09-19T09:35:48;31.25;;;16.73;;
35442;SDS011;21561;55.654;37.592;2023-09-19T09:38:19;31.83;;;16.08;;
35442;SDS011;21561;55.654;37.592;2023-09-19T09:40:48;32.70;;;16.42;;
35442;SDS011;21561;55.654;37.592;2023-09-19T09:46:14;31.85;;;14.93;;
35442;SDS011;21561;55.654;37.592;2023-09-19T09:49:05;30.65;;;14.95;;
35442;SDS011;21561;55.654;37.592;2023-09-19T09:51:48;29.88;;;15.00;;
35442;SDS011;21561;55.654;37.592;2023-09-19T09:54:27;26.65;;;15.02;;
35442;SDS011;21561;55.654;37.592;2023-09-19T09:57:00;28.67;;;14.07;;
35442;SDS011;21561;55.654;37.592;2023-09-19T10:02:14;31.45;;;14.70;;
35442;SDS011;21561;55.654;37.592;2023-09-19T10:04:51;28.48;;;13.52;;
35442;SDS011;21561;55.654;37.592;2023-09-19T10:09:59;24.55;;;13.30;;
35442;SDS011;21561;55.654;37.592;2023-09-19T10:12:38;27.27;;;12.57;;
35442;SDS011;21561;55.654;37.592;2023-09-19T10:15:08;30.42;;;13.50;;
35442;SDS011;21561;55.654;37.592;2023-09-19T10:17:37;28.60;;;13.88;;
35442;SDS011;21561;55.654;37.592;2023-09-19T10:20:11;30.02;;;13.77;;
35442;SDS011;21561;55.654;37.592;2023-09-19T10:22:59;29.80;;;13.05;;
35442;SDS011;21561;55.654;37.592;2023-09-19T10:25:27;26.58;;;13.70;;
35442;SDS011;21561;55.654;37.592;2023-09-19T10:27:55;27.73;;;13.13;;
35442;SDS011;21561;55.654;37.592;2023-09-19T10:30:25;23.05;;;12.68;;
35442;SDS011;21561;55.654;37.592;2023-09-19T10:33:01;26.67;;;12.98;;
35442;SDS011;21561;55.654;37.592;2023-09-19T10:35:30;26.88;;;13.55;;
35442;SDS011;21561;55.654;37.592;2023-09-19T10:37:59;27.13;;;12.82;;
35442;SDS011;21561;55.654;37.592;2023-09-19T10:40:28;27.33;;;13.05;;
35442;SDS011;21561;55.654;37.592;2023-09-19T10:43:04;24.20;;;12.63;;
35442;SDS011;21561;55.654;37.592;2023-09-19T10:45:33;28.10;;;13.40;;
35442;SDS011;21561;55.654;37.592;2023-09-19T10:48:02;29.08;;;12.98;;
35442;SDS011;21561;55.654;37.592;2023-09-19T10:50:35;32.92;;;12.38;;
35442;SDS011;21561;55.654;37.592;2023-09-19T10:53:08;30.02;;;13.20;;
35442;SDS011;21561;55.654;37.592;2023-09-19T10:55:37;34.13;;;13.68;;
35442;SDS011;21561;55.654;37.592;2023-09-19T10:58:05;29.85;;;13.82;;
35442;SDS011;21561;55.654;37.592;2023-09-19T11:00:51;23.50;;;12.38;;
35442;SDS011;21561;55.654;37.592;2023-09-19T11:03:20;28.73;;;12.60;;
35442;SDS011;21561;55.654;37.592;2023-09-19T11:06:00;26.05;;;12.57;;
35442;SDS011;21561;55.654;37.592;2023-09-19T11:08:56;26.58;;;13.23;;
35442;SDS011;21561;55.654;37.592;2023-09-19T11:14:28;26.52;;;13.77;;
35442;SDS011;21561;55.654;37.592;2023-09-19T11:25:46;28.50;;;14.00;;
35442;SDS011;21561;55.654;37.592;2023-09-19T11:30:48;24.30;;;13.23;;
35442;SDS011;21561;55.654;37.592;2023-09-19T11:33:26;27.23;;;12.43;;
35442;SDS011;21561;55.654;37.592;2023-09-19T11:46:31;24.13;;;11.65;;
35442;SDS011;21561;55.654;37.592;2023-09-19T11:49:17;24.67;;;11.15;;
35442;SDS011;21561;55.654;37.592;2023-09-19T11:51:50;22.30;;;11.35;;
35442;SDS011;21561;55.654;37.592;2023-09-19T11:54:21;24.85;;;11.90;;
35442;SDS011;21561;55.654;37.592;2023-09-19T11:56:51;23.27;;;12.23;;
35442;SDS011;21561;55.654;37.592;2023-09-19T11:59:24;21.92;;;11.70;;
35442;SDS011;21561;55.654;37.592;2023-09-19T12:04:33;21.67;;;11.90;;
35442;SDS011;21561;55.654;37.592;2023-09-19T12:09:43;22.67;;;10.75;;
35442;SDS011;21561;55.654;37.592;2023-09-19T12:12:24;22.73;;;10.85;;
35442;SDS011;21561;55.654;37.592;2023-09-19T12:14:56;24.98;;;11.95;;
35442;SDS011;21561;55.654;37.592;2023-09-19T12:17:37;26.13;;;10.70;;
35442;SDS011;21561;55.654;37.592;2023-09-19T12:20:05;18.88;;;10.25;;
35442;SDS011;21561;55.654;37.592;2023-09-19T12:22:40;26.58;;;10.70;;
35442;SDS011;21561;55.654;37.592;2023-09-19T12:25:14;21.13;;;10.55;;
35442;SDS011;21561;55.654;37.592;2023-09-19T12:27:43;23.17;;;10.55;;
35442;SDS011;21561;55.654;37.592;2023-09-19T12:30:13;21.45;;;9.77;;
35442;SDS011;21561;55.654;37.592;2023-09-19T12:32:47;24.52;;;9.77;;
35442;SDS011;21561;55.654;37.592;2023-09-19T12:35:29;21.05;;;10.70;;
35442;SDS011;21561;55.654;37.592;2023-09-19T12:38:01;22.90;;;10.50;;
35442;SDS011;21561;55.654;37.592;2023-09-19T12:40:30;19.55;;;10.35;;
35442;SDS011;21561;55.654;37.592;2023-09-19T12:43:00;22.38;;;10.93;;
35442;SDS011;21561;55.654;37.592;2023-09-19T12:45:31;26.25;;;10.65;;
35442;SDS011;21561;55.654;37.592;2023-09-19T12:48:18;22.98;;;9.52;;
35442;SDS011;21561;55.654;37.592;2023-09-19T12:51:09;19.30;;;9.95;;
35442;SDS011;21561;55.654;37.592;2023-09-19T12:53:43;19.90;;;9.18;;
35442;SDS011;21561;55.654;37.592;2023-09-19T12:56:13;19.20;;;9.60;;
35442;SDS011;21561;55.654;37.592;2023-09-19T12:58:55;20.35;;;9.07;;
35442;SDS011;21561;55.654;37.592;2023-09-19T13:01:23;18.33;;;8.85;;
35442;SDS011;21561;55.654;37.592;2023-09-19T13:06:48;17.40;;;7.88;;
35442;SDS011;21561;55.654;37.592;2023-09-19T13:09:16;19.52;;;8.00;;
35442;SDS011;21561;55.654;37.592;2023-09-19T13:11:44;20.95;;;8.13;;
35442;SDS011;21561;55.654;37.592;2023-09-19T13:14:15;18.20;;;7.93;;
35442;SDS011;21561;55.654;37.592;2023-09-19T13:17:00;16.83;;;7.50;;
35442;SDS011;21561;55.654;37.592;2023-09-19T13:19:36;18.52;;;8.57;;
35442;SDS011;21561;55.654;37.592;2023-09-19T13:25:08;20.73;;;8.20;;
35442;SDS011;21561;55.654;37.592;2023-09-19T13:27:55;22.90;;;8.57;;
35442;SDS011;21561;55.654;37.592;2023-09-19T13:30:24;18.73;;;8.07;;
35442;SDS011;21561;55.654;37.592;2023-09-19T13:33:05;19.23;;;8.35;;
35442;SDS011;21561;55.654;37.592;2023-09-19T13:35:33;17.98;;;8.40;;
35442;SDS011;21561;55.654;37.592;2023-09-19T13:38:00;20.77;;;9.25;;
35442;SDS011;21561;55.654;37.592;2023-09-19T13:40:27;21.73;;;9.68;;
35442;SDS011;21561;55.654;37.592;2023-09-19T13:42:58;20.85;;;9.90;;
35442;SDS011;21561;55.654;37.592;2023-09-19T13:45:25;18.80;;;9.23;;
35442;SDS011;21561;55.654;37.592;2023-09-19T13:47:53;19.88;;;9.85;;
35442;SDS011;21561;55.654;37.592;2023-09-19T13:50:20;24.42;;;10.30;;
35442;SDS011;21561;55.654;37.592;2023-09-19T13:52:51;18.95;;;9.52;;
35442;SDS011;21561;55.654;37.592;2023-09-19T13:55:18;21.45;;;10.52;;
35442;SDS011;21561;55.654;37.592;2023-09-19T13:57:48;23.75;;;9.57;;
35442;SDS011;21561;55.654;37.592;2023-09-19T14:00:21;27.88;;;10.98;;
35442;SDS011;21561;55.654;37.592;2023-09-19T14:02:49;23.42;;;12.18;;
35442;SDS011;21561;55.654;37.592;2023-09-19T14:05:18;19.60;;;10.57;;
35442;SDS011;21561;55.654;37.592;2023-09-19T14:07:47;24.65;;;10.55;;
35442;SDS011;21561;55.654;37.592;2023-09-19T14:10:14;33.28;;;12.25;;
35442;SDS011;21561;55.654;37.592;2023-09-19T14:12:42;28.25;;;10.60;;
35442;SDS011;21561;55.654;37.592;2023-09-19T14:15:11;23.30;;;10.35;;
35442;SDS011;21561;55.654;37.592;2023-09-19T14:17:39;26.23;;;11.80;;
35442;SDS011;21561;55.654;37.592;2023-09-19T14:20:09;25.58;;;10.40;;
35442;SDS011;21561;55.654;37.592;2023-09-19T14:22:37;24.02;;;10.45;;
35442;SDS011;21561;55.654;37.592;2023-09-19T14:25:04;26.80;;;10.50;;
35442;SDS011;21561;55.654;37.592;2023-09-19T14:27:32;24.90;;;10.52;;
35442;SDS011;21561;55.654;37.592;2023-09-19T14:29:58;29.10;;;10.40;;
35442;SDS011;21561;55.654;37.592;2023-09-19T14:32:25;28.67;;;10.63;;
35442;SDS011;21561;55.654;37.592;2023-09-19T14:34:52;26.13;;;9.77;;
35442;SDS011;21561;55.654;37.592;2023-09-19T14:37:19;19.85;;;9.73;;
35442;SDS011;21561;55.654;37.592;2023-09-19T14:39:49;22.88;;;10.00;;
35442;SDS011;21561;55.654;37.592;2023-09-19T14:42:15;20.60;;;9.30;;
35442;SDS011;21561;55.654;37.592;2023-09-19T14:44:44;26.88;;;9.50;;
35442;SDS011;21561;55.654;37.592;2023-09-19T14:47:13;25.83;;;9.65;;
35442;SDS011;21561;55.654;37.592;2023-09-19T14:49:40;29.50;;;10.02;;
35442;SDS011;21561;55.654;37.592;2023-09-19T14:52:08;27.88;;;9.73;;
35442;SDS011;21561;55.654;37.592;2023-09-19T14:54:36;26.48;;;9.73;;
35442;SDS011;21561;55.654;37.592;2023-09-19T14:59:35;27.65;;;9.60;;
35442;SDS011;21561;55.654;37.592;2023-09-19T15:02:06;26.13;;;9.65;;
35442;SDS011;21561;55.654;37.592;2023-09-19T15:04:33;20.35;;;8.82;;
35442;SDS011;21561;55.654;37.592;2023-09-19T15:07:00;19.98;;;8.63;;
35442;SDS011;21561;55.654;37.592;2023-09-19T15:09:29;21.83;;;9.00;;
35442;SDS011;21561;55.654;37.592;2023-09-19T15:11:58;24.50;;;9.18;;
35442;SDS011;21561;55.654;37.592;2023-09-19T15:14:25;20.58;;;8.30;;
35442;SDS011;21561;55.654;37.592;2023-09-19T15:16:52;23.83;;;8.52;;
35442;SDS011;21561;55.654;37.592;2023-09-19T15:19:19;20.92;;;8.73;;
35442;SDS011;21561;55.654;37.592;2023-09-19T15:21:46;25.10;;;8.77;;
35442;SDS011;21561;55.654;37.592;2023-09-19T15:24:12;22.35;;;8.63;;
35442;SDS011;21561;55.654;37.592;2023-09-19T15:26:39;20.75;;;7.80;;
35442;SDS011;21561;55.654;37.592;2023-09-19T15:29:06;22.38;;;8.27;;
35442;SDS011;21561;55.654;37.592;2023-09-19T15:31:34;22.45;;;7.97;;
35442;SDS011;21561;55.654;37.592;2023-09-19T15:34:03;23.17;;;8.50;;
35442;SDS011;21561;55.654;37.592;2023-09-19T15:36:36;19.97;;;7.97;;
35442;SDS011;21561;55.654;37.592;2023-09-19T15:39:06;19.75;;;8.10;;
35442;SDS011;21561;55.654;37.592;2023-09-19T15:41:41;18.98;;;7.97;;